Briefing drone pour Lamonzie-saint-martin

Rechercher une autre localisation

Conditions de vol :


Nous sommes le : Dimanche 14 avril 2024
Il est 00:47 UTC (02:47 LT)

Lever de soleil : 04:47 UTC (06:47 LT)
Coucher de soleil : 19:09 UTC (21:09 LT)

Météo

L'essentiel des conditions de vol

VIGILANCE MÉTÉO FRANCE - Dordogne (24)
Pas de vigilances particulieres
CARTE TEMSI
CARTES DES FRONTS
METAR de LFBE
LFBE 140030Z AUTO 03003KT CAVOK 11/11 Q1025 TEMPO 0800 FG VV///

Date d'émission: 14/04/2024
Heure d'émission: 00:30 UTC
Vent: 030° pour 3 KT (6 km/h)
Visibilité horizontale: > 10 km
Plafond : Plafond et visibilité OK (CAVOK)
Température: 11 °C
Point de rosée: 11 °C
Humidité: 100%
Pression (QNH): 1025 hPa

Temporairement:

Visibilité horizontale : 0800 m
Conditions : Brouillard (Hauteur non disponible)
TAF de LFBE
LFBE 132003Z 1320/1412 CNL

Conditions prévues :

Heure d'émission : Bulletin éffectué le 13 à 20:00 UTC
Prévision : Valide du 13 a 20:00 UTC au 14 a 12:00 UTC
Nuages : à 0ft (0 m)
WEBCAM POUR LAMONZIE-SAINT-MARTIN

Réglementation

Voler en sécurité

CARTES AERONAUTIQUE 1/500.000
CARTE AZBA (Reseau basse altitude)
CARTES VAC (LFBE)
SUP AIP




Chargement des AIP...
NOTAM (LAMONZIE-SAINT-MARTIN + Terrain à proximité / FIR )




Chargement des NOTAMS...
CONTACT PREFECTURE 24
Dordogne (24) : [email protected]


Avertissement : Les données mises à disposition sont indicatives. Oxygène Drone ne pourra être tenu responsable de dégâts causés aux biens et aux personnes.